Sacramento, CA (94262)

5:23 PM PST on March 05, 2015 (GMT -0800)
APRSWXNET Sacramento CA US | Change Station
CLOSE
Current Station
Personal Weather Station
Location: Sacramento, CA
Elevation: 18 ft
Nearby Weather Stations

Elev 18 ft 38.57 °N, 121.48 °W | Updated 30 minutes ago

Clear
Clear
69 °F
Feels Like 69 °F
N
1
Wind Variable Wind from NW
Gusts 0.0 mph

Today
High -- | Low -- °F
--% Chance of Precip.
Yesterday
High -- | Low -- °F
Precip. -- in
6:32 AM 6:02 PM
Full, 100% visible
Pressure 30.27 in
Visibility 10.0 miles
Clouds Clear
Dew Point 42 °F
Humidity 37%
Rainfall in
Snow Depth Not available.
UV 1 out of 12
Pollen 8.00 out of 12
Air Quality Not available.
Flu Activity Not available.
METAR KSAC 060053Z AUTO 28007KT 10SM CLR 20/03 A3027

More Conditions Fewer Conditions

Pressure 30.27 in
Visibility 10.0 miles
Clouds Clear
Dew Point 42 °F
Humidity 37%
Rainfall in
Snow Depth Not available.
UV 1 out of 12
Pollen 8.00 out of 12
Air Quality Not available.
Flu Activity Not available.
METAR KSAC 060053Z AUTO 28007KT 10SM CLR 20/03 A3027

More Conditions Fewer Conditions

10-Day Weather Forecast

Almanac

Astronomy

Mar. 05, 2015 Rise Set
Actual Time
Civil Twilight
Nautical Twilight
Astronomical Twilight
Moon
Length of Visible Light
Length of Day
Tomorrow will be .
, % of the Moon is Illuminated

Today's Extremes

State Highs State Lows

Community

WunderPhotos

Upload Photos

1,803,093 photos uploaded!

WunderBlogs® & News

Nearby

Air Quality

  Air Quality AQ Index Pollutant
Not available.

Snow Depth

Station Depth Elevation

Earthquake Activity

City Distance Mag. Time & Date
Minimum magnitude displayed is 2.5.

Coastal Water Temperatures

Place Temperature

Nearby Weather Stations